Radar AviationWeather DUATS TFRs Wunderground Accuweather Weather.com

alt : Radar

TAFs

KDTW 201020Z 2010/2112 07010KT P6SM BKN060 OVC100
   FM201200 09010KT 2SM -SN OVC025
   FM201300 09010KT 1SM -SNPL OVC015
   FM201600 09013KT 2SM -FZRA BR OVC007
   FM202000 12013KT 1SM -RA BR OVC004
   FM210200 23013G20KT P6SM OVC015
KJXN 200947Z 2010/2106 06010KT P6SM OVC100
   FM201200 09010KT 1 1/2SM -SN BR OVC015
   FM201400 10010KT 2SM -FZRASN BR OVC009
   FM201700 11010KT 2SM -FZDZ BR OVC009
   FM202000 14007KT 2SM -DZ BR OVC005
   FM210200 22013G21KT 5SM BR OVC007
KFDY 200933Z 2010/2106 09008KT 1 1/2SM -FZRASN BKN025 OVC045
   FM201600 11013G21KT 3SM -RASN OVC008
   FM201700 15012G20KT 4SM -RA OVC008
   FM210100 20012G20KT P6SM OVC008
KCLE 200855Z 2009/2112 08008KT P6SM OVC120
   FM201200 11008KT 1 1/2SM -SN BKN025 OVC035
   FM201800 14012G21KT 3SM -RASN OVC008
   FM202000 17012G24KT 4SM -RA SCT004 OVC012
   FM210300 22012G20KT P6SM OVC008
KTOL 200550Z 2006/2106 08006KT P6SM SCT150 BKN200
   FM201100 08009KT 1 1/2SM -SN SCT025 OVC045
   FM201700 10012G20KT 3SM -FZRASN BKN003 OVC025
   FM202100 13008KT 3SM -RASN BKN003 OVC025
   FM202300 17010KT 5SM -RA OVC003
   FM210300 23012G20KT P6SM OVC008
KFWA 200524Z 2006/2106 09011KT P6SM OVC100
   FM200900 08012KT 1SM -SN OVC015
   FM201300 09015G21KT 2SM -FZRA BR OVC008
   FM201600 13010KT 2SM -RA BR OVC005
   FM210300 24016G22KT P6SM OVC010

METARs

KFDY 201022Z AUTO 06009KT 1 1/4SM -SN BR OVC021 M02/M04 A3021 RMK AO2 P0002 T10221039
KFWA 201022Z 07013KT 2SM -SNPL BR FEW007 BKN014 OVC021 M02/M03 A3016 RMK AO2 PLB22 P0004 T10221033 $
KDUH 201016Z AUTO 08007KT 10SM BKN060 OVC070 M03/M05 A3028 RMK AO2 T10281055
KJXN 200956Z AUTO 08010KT 10SM OVC090 M05/M09 A3025 RMK AO2 SLP258 T10501089
KDTW 200953Z 07009KT 8SM SCT065 BKN110 OVC170 M04/M09 A3031 RMK AO2 SLP273 T10391094
KTDZ 200953Z AUTO 06009KT 10SM BKN075 OVC090 M02/M06 A3029 RMK AO2 SLP264 T10221061 $
KTOL 200952Z 09011KT 10SM BKN060 OVC075 M02/M08 A3028 RMK AO2 SLP261 T10221078 $
KCLE 200951Z 09005KT 10SM OVC100 M02/M09 A3032 RMK AO2 SLP278 T10171089 $

alt : Satellite

alt : TFRs